Time;durP1;ratioP1;P1;durP2;ratioP2;P2;SDS_P1;SDS_P2;PMS_P1;PMS_P2;Temp;Humidity;BMP_temperature;BMP_pressure;BME280_temperature;BME280_humidity;BME280_pressure;Samples;Min_cycle;Max_cycle;Signal;HPM_P1;HPM_P2
2021/12/02 00:00:12;;;;;;;;;;;5.20;99.90;;;;;;5024209;28;19927;-73
2021/12/02 00:02:39;;;;;;;;;;;5.10;99.90;;;;;;5023741;28;19921;-74
2021/12/02 00:05:06;;;;;;;;;;;5.10;99.90;;;;;;5023435;28;19984;-74
2021/12/02 00:07:32;;;;;;;;;;;5.10;99.90;;;;;;5023845;28;19921;-74
2021/12/02 00:10:00;;;;;;;;;;;5.10;99.90;;;;;;5024012;28;20120;-74
2021/12/02 00:12:28;;;;;;;;;;;5.10;99.90;;;;;;5022972;28;19921;-74
2021/12/02 00:14:55;;;;;;;;;;;5.10;99.90;;;;;;5023577;28;20123;-74
2021/12/02 00:17:25;;;;;;;;;;;5.00;99.90;;;;;;5023341;28;19964;-73
2021/12/02 00:22:47;;;;;;;;;;;4.90;99.90;;;;;;5023723;28;19924;-74
2021/12/02 00:25:14;;;;;;;;;;;4.90;99.90;;;;;;5023426;28;19921;-74
2021/12/02 00:27:44;;;;;;;;;;;4.80;99.90;;;;;;5023773;28;19921;-73
2021/12/02 00:30:11;;;;;;;;;;;4.70;99.90;;;;;;5024104;28;19928;-74
2021/12/02 00:32:39;;;;;;;;;;;4.70;99.90;;;;;;5023759;28;19928;-71
2021/12/02 00:35:06;;;;;;;;;;;4.70;99.90;;;;;;5023339;28;19928;-73
2021/12/02 00:37:33;;;;;;;;;;;4.60;99.90;;;;;;5023193;28;20202;-73
2021/12/02 00:40:00;;;;;;;;;;;4.60;99.90;;;;;;5024004;28;19921;-73
2021/12/02 00:42:27;;;;;;;;;;;4.60;99.90;;;;;;5023207;28;20222;-71
2021/12/02 00:44:57;;;;;;;;;;;4.60;99.90;;;;;;5023228;28;19922;-73
2021/12/02 00:47:24;;;;;;;;;;;4.60;99.90;;;;;;5023405;28;19922;-73
2021/12/02 00:49:51;;;;;;;;;;;4.60;99.90;;;;;;5023890;28;19927;-73
2021/12/02 00:52:18;;;;;;;;;;;4.60;99.90;;;;;;5023515;28;19921;-73
2021/12/02 00:54:45;;;;;;;;;;;4.60;99.90;;;;;;5023916;28;19921;-74
2021/12/02 00:57:13;;;;;;;;;;;4.60;99.90;;;;;;5026780;28;19921;-73
2021/12/02 00:59:40;;;;;;;;;;;4.60;99.90;;;;;;5027337;28;19955;-72
2021/12/02 01:02:09;;;;;;;;;;;4.60;99.90;;;;;;5020753;28;19930;-73
2021/12/02 01:04:35;;;;;;;;;;;4.60;99.90;;;;;;5026314;28;19921;-72
2021/12/02 01:07:02;;;;;;;;;;;4.60;99.90;;;;;;5026809;28;19921;-72
2021/12/02 01:09:29;;;;;;;;;;;4.60;99.90;;;;;;5027150;28;19932;-73
2021/12/02 01:11:56;;;;;;;;;;;4.60;99.90;;;;;;5026417;28;19928;-73
2021/12/02 01:14:23;;;;;;;;;;;4.60;99.90;;;;;;5026392;28;19921;-73
2021/12/02 01:16:50;;;;;;;;;;;4.70;99.90;;;;;;5026238;28;19921;-73
2021/12/02 01:19:18;;;;;;;;;;;4.70;99.90;;;;;;5026603;28;19928;-73
2021/12/02 01:21:45;;;;;;;;;;;4.70;99.90;;;;;;5018942;28;19921;-75
2021/12/02 01:24:12;;;;;;;;;;;4.70;99.90;;;;;;5025872;28;19927;-73
2021/12/02 01:26:40;;;;;;;;;;;4.60;99.90;;;;;;5026755;28;19928;-73
2021/12/02 01:29:06;;;;;;;;;;;4.60;99.90;;;;;;5026488;28;19921;-73
2021/12/02 01:31:34;;;;;;;;;;;4.40;99.90;;;;;;5026670;28;20260;-72
2021/12/02 01:34:01;;;;;;;;;;;4.30;99.90;;;;;;5025874;28;19928;-73
2021/12/02 01:36:32;;;;;;;;;;;4.20;99.90;;;;;;5026548;28;20148;-73
2021/12/02 01:38:59;;;;;;;;;;;4.10;99.90;;;;;;5026059;28;20213;-72
2021/12/02 01:41:26;;;;;;;;;;;4.00;99.90;;;;;;5021597;28;19929;-72
2021/12/02 01:43:53;;;;;;;;;;;4.00;99.90;;;;;;5023290;28;19929;-73
2021/12/02 01:46:21;;;;;;;;;;;4.00;99.90;;;;;;5026267;28;19937;-73
2021/12/02 01:48:49;;;;;;;;;;;4.00;99.90;;;;;;5026256;28;19922;-73
2021/12/02 01:51:42;;;;;;;;;;;4.00;99.90;;;;;;5023520;28;19921;-73
2021/12/02 01:54:11;;;;;;;;;;;4.00;99.90;;;;;;5025058;28;19963;-73
2021/12/02 01:56:41;;;;;;;;;;;4.00;99.90;;;;;;5026066;28;19922;-72
2021/12/02 01:59:10;;;;;;;;;;;4.00;99.90;;;;;;5025715;28;20209;-73
2021/12/02 02:01:37;;;;;;;;;;;4.00;99.90;;;;;;5025879;28;19985;-73
2021/12/02 02:04:04;;;;;;;;;;;4.00;99.90;;;;;;5025133;28;19921;-73
2021/12/02 02:06:34;;;;;;;;;;;4.00;99.90;;;;;;5025153;28;20235;-73
2021/12/02 02:09:01;;;;;;;;;;;4.10;99.90;;;;;;5025690;28;19921;-73
2021/12/02 02:11:30;;;;;;;;;;;4.10;99.90;;;;;;5025924;28;19928;-73
2021/12/02 02:13:57;;;;;;;;;;;4.10;99.90;;;;;;5025025;28;19921;-73
2021/12/02 02:16:24;;;;;;;;;;;4.10;99.90;;;;;;5012382;28;19922;-73
2021/12/02 02:18:51;;;;;;;;;;;4.10;99.90;;;;;;5022869;28;20228;-72
2021/12/02 02:21:23;;;;;;;;;;;4.20;99.90;;;;;;5025533;28;20209;-73
2021/12/02 02:23:51;;;;;;;;;;;4.20;99.90;;;;;;5024838;28;19973;-73
2021/12/02 02:26:23;;;;;;;;;;;4.20;99.90;;;;;;5025738;28;19926;-73
2021/12/02 02:28:49;;;;;;;;;;;4.20;99.90;;;;;;5025475;28;20090;-73
2021/12/02 02:31:17;;;;;;;;;;;4.20;99.90;;;;;;5011289;28;19921;-73
2021/12/02 02:33:44;;;;;;;;;;;4.20;99.90;;;;;;5024897;28;19927;-73
2021/12/02 02:36:11;;;;;;;;;;;4.20;99.90;;;;;;5025442;28;19922;-73
2021/12/02 02:38:39;;;;;;;;;;;4.20;99.90;;;;;;5025186;28;20184;-72
2021/12/02 02:41:08;;;;;;;;;;;4.30;99.90;;;;;;5025480;28;19921;-73
2021/12/02 02:43:34;;;;;;;;;;;4.30;99.90;;;;;;5020322;28;19928;-73
2021/12/02 02:46:01;;;;;;;;;;;4.30;99.90;;;;;;5025375;28;19927;-73
2021/12/02 02:48:29;;;;;;;;;;;4.30;99.90;;;;;;5024719;28;20217;-73
2021/12/02 02:50:56;;;;;;;;;;;4.30;99.90;;;;;;5025372;28;19984;-73
2021/12/02 02:53:24;;;;;;;;;;;4.30;99.90;;;;;;5024855;28;19921;-73
2021/12/02 02:56:00;;;;;;;;;;;4.30;99.90;;;;;;5024344;28;19989;-71
2021/12/02 02:58:33;;;;;;;;;;;4.20;99.90;;;;;;5024631;28;19928;-73
2021/12/02 03:01:05;;;;;;;;;;;4.20;99.90;;;;;;5024982;28;19964;-72
2021/12/02 03:03:38;;;;;;;;;;;4.20;99.90;;;;;;5024478;28;19928;-76
2021/12/02 03:06:21;;;;;;;;;;;4.20;99.90;;;;;;5024654;28;19925;-73
2021/12/02 03:08:52;;;;;;;;;;;4.20;99.90;;;;;;5024701;28;20257;-74
2021/12/02 03:11:21;;;;;;;;;;;4.20;99.90;;;;;;5024814;28;19949;-74
2021/12/02 03:13:51;;;;;;;;;;;4.20;99.90;;;;;;5021104;28;20205;-72
2021/12/02 03:19:01;;;;;;;;;;;4.20;99.90;;;;;;5023538;28;20316;-73
2021/12/02 03:21:28;;;;;;;;;;;4.20;99.90;;;;;;5024664;28;19928;-72
2021/12/02 03:23:56;;;;;;;;;;;4.20;99.90;;;;;;5023926;28;20117;-73
2021/12/02 03:26:24;;;;;;;;;;;4.20;99.90;;;;;;5024669;28;19926;-73
2021/12/02 03:28:51;;;;;;;;;;;4.20;99.90;;;;;;5017169;28;19922;-74
2021/12/02 03:31:18;;;;;;;;;;;4.20;99.90;;;;;;5004633;28;20210;-73
2021/12/02 03:33:44;;;;;;;;;;;4.20;99.90;;;;;;5022087;28;19921;-73
2021/12/02 03:36:11;;;;;;;;;;;4.20;99.90;;;;;;5024296;28;19922;-73
2021/12/02 03:38:38;;;;;;;;;;;4.20;99.90;;;;;;5024049;28;19922;-73
2021/12/02 03:41:05;;;;;;;;;;;4.10;99.90;;;;;;5024559;28;19922;-73
2021/12/02 03:43:35;;;;;;;;;;;4.20;99.90;;;;;;5023610;28;19928;-73
2021/12/02 03:46:02;;;;;;;;;;;4.20;99.90;;;;;;5024019;28;20124;-73
2021/12/02 03:48:29;;;;;;;;;;;4.20;99.90;;;;;;5024138;28;19928;-73
2021/12/02 03:50:55;;;;;;;;;;;4.20;99.90;;;;;;5024029;28;19928;-73
2021/12/02 03:53:22;;;;;;;;;;;4.20;99.90;;;;;;5021810;28;20201;-73
2021/12/02 03:55:49;;;;;;;;;;;4.20;99.90;;;;;;5023638;28;19922;-73
2021/12/02 03:58:15;;;;;;;;;;;4.20;99.90;;;;;;5023892;28;20109;-73
2021/12/02 04:00:43;;;;;;;;;;;4.20;99.90;;;;;;5024563;28;19921;-73
2021/12/02 04:03:10;;;;;;;;;;;4.30;99.90;;;;;;5023940;28;19922;-73
2021/12/02 04:05:36;;;;;;;;;;;4.20;99.90;;;;;;5023197;28;20213;-72
2021/12/02 04:08:03;;;;;;;;;;;4.20;99.90;;;;;;5023925;28;19922;-73
2021/12/02 04:10:31;;;;;;;;;;;4.20;99.90;;;;;;5024093;28;19921;-73
2021/12/02 04:13:05;;;;;;;;;;;4.20;99.90;;;;;;5023791;28;19921;-73
2021/12/02 04:15:34;;;;;;;;;;;4.20;99.90;;;;;;5023677;28;19926;-73
2021/12/02 04:18:02;;;;;;;;;;;4.20;99.90;;;;;;5023739;28;19928;-73
2021/12/02 04:20:29;;;;;;;;;;;4.30;99.90;;;;;;5024065;28;19968;-73
2021/12/02 04:22:57;;;;;;;;;;;4.30;99.90;;;;;;5023105;28;19921;-73
2021/12/02 04:25:23;;;;;;;;;;;4.30;99.90;;;;;;5023078;28;19926;-73
2021/12/02 04:27:50;;;;;;;;;;;4.30;99.90;;;;;;5023608;28;19921;-73
2021/12/02 04:30:19;;;;;;;;;;;4.30;99.90;;;;;;5025909;28;20206;-73
2021/12/02 04:32:45;;;;;;;;;;;4.30;99.90;;;;;;5027147;28;19921;-72
2021/12/02 04:35:13;;;;;;;;;;;4.30;99.90;;;;;;5027215;28;19944;-73
2021/12/02 04:37:40;;;;;;;;;;;4.30;99.90;;;;;;5027350;28;19929;-73
2021/12/02 04:40:07;;;;;;;;;;;4.30;99.90;;;;;;5027696;28;19921;-73
2021/12/02 04:42:35;;;;;;;;;;;4.30;99.90;;;;;;5027374;28;19949;-73
2021/12/02 04:45:01;;;;;;;;;;;4.30;99.90;;;;;;5026919;28;19922;-73
2021/12/02 04:47:28;;;;;;;;;;;4.30;99.90;;;;;;5027158;28;19922;-73
2021/12/02 04:49:54;;;;;;;;;;;4.30;99.90;;;;;;5027434;28;19922;-73
2021/12/02 04:52:22;;;;;;;;;;;4.30;99.90;;;;;;5027186;28;20128;-73
2021/12/02 04:54:49;;;;;;;;;;;4.30;99.90;;;;;;5026730;28;20117;-73
2021/12/02 04:57:16;;;;;;;;;;;4.30;99.90;;;;;;5027016;28;19921;-73
2021/12/02 04:59:42;;;;;;;;;;;4.30;99.90;;;;;;5027268;28;20094;-73
2021/12/02 05:02:09;;;;;;;;;;;4.30;99.90;;;;;;5026989;28;19921;-73
2021/12/02 05:04:35;;;;;;;;;;;4.30;99.90;;;;;;5026556;28;19922;-73
2021/12/02 05:07:02;;;;;;;;;;;4.30;99.90;;;;;;5026930;28;19921;-73
2021/12/02 05:09:30;;;;;;;;;;;4.30;99.90;;;;;;5027117;28;19922;-73
2021/12/02 05:11:56;;;;;;;;;;;4.30;99.90;;;;;;5026347;28;20201;-73
2021/12/02 05:14:23;;;;;;;;;;;4.30;99.90;;;;;;5026495;28;19928;-73
2021/12/02 05:16:50;;;;;;;;;;;4.30;99.90;;;;;;5026349;28;19933;-73
2021/12/02 05:19:16;;;;;;;;;;;4.30;99.90;;;;;;5026316;28;19988;-73
2021/12/02 05:21:43;;;;;;;;;;;4.30;99.90;;;;;;5025898;28;19922;-73
2021/12/02 05:24:09;;;;;;;;;;;4.30;99.90;;;;;;5023783;28;19929;-73
2021/12/02 05:26:37;;;;;;;;;;;4.30;99.90;;;;;;5026066;28;19929;-73
2021/12/02 05:29:04;;;;;;;;;;;4.30;99.90;;;;;;5014441;28;19936;-74
2021/12/02 05:31:31;;;;;;;;;;;4.30;99.90;;;;;;5011350;28;19922;-74
2021/12/02 05:33:57;;;;;;;;;;;4.30;99.90;;;;;;5024734;28;20124;-73
2021/12/02 05:36:24;;;;;;;;;;;4.20;99.90;;;;;;5024227;28;19930;-73
2021/12/02 05:38:51;;;;;;;;;;;4.30;99.90;;;;;;5021844;28;19929;-73
2021/12/02 05:41:17;;;;;;;;;;;4.20;99.90;;;;;;5016201;28;19989;-73
2021/12/02 05:43:45;;;;;;;;;;;4.20;99.90;;;;;;5023199;28;19925;-73
2021/12/02 05:46:12;;;;;;;;;;;4.20;99.90;;;;;;5025397;28;20217;-74
2021/12/02 05:48:40;;;;;;;;;;;4.20;99.90;;;;;;5025520;28;19929;-74
2021/12/02 05:51:06;;;;;;;;;;;4.20;99.90;;;;;;5025168;28;19928;-74
2021/12/02 05:53:33;;;;;;;;;;;4.10;99.90;;;;;;5022833;28;19921;-73
2021/12/02 05:56:00;;;;;;;;;;;4.10;99.90;;;;;;5012773;28;19927;-73
2021/12/02 05:58:27;;;;;;;;;;;4.10;99.90;;;;;;5026150;28;19927;-73
2021/12/02 06:00:54;;;;;;;;;;;4.10;99.90;;;;;;5026146;28;19928;-73
2021/12/02 06:03:21;;;;;;;;;;;4.20;99.90;;;;;;5025640;28;19927;-73
2021/12/02 06:05:48;;;;;;;;;;;4.20;99.90;;;;;;5011603;28;20198;-73
2021/12/02 06:08:14;;;;;;;;;;;4.30;99.90;;;;;;5018533;28;19988;-73
2021/12/02 06:10:41;;;;;;;;;;;4.20;99.90;;;;;;5014389;28;19985;-73
2021/12/02 06:13:07;;;;;;;;;;;4.20;99.90;;;;;;5016248;28;20223;-73
2021/12/02 06:15:34;;;;;;;;;;;4.10;99.90;;;;;;5023049;28;19989;-74
2021/12/02 06:18:02;;;;;;;;;;;4.20;99.90;;;;;;5023681;28;19928;-73
2021/12/02 06:20:29;;;;;;;;;;;4.20;99.90;;;;;;5005835;28;20201;-71
2021/12/02 06:22:55;;;;;;;;;;;4.20;99.90;;;;;;5019472;28;19921;-74
2021/12/02 06:28:06;;;;;;;;;;;4.20;99.90;;;;;;5013732;28;19956;-74
2021/12/02 06:30:32;;;;;;;;;;;4.20;99.90;;;;;;5024852;28;19921;-73
2021/12/02 06:32:59;;;;;;;;;;;4.20;99.90;;;;;;5024118;28;19921;-74
2021/12/02 06:35:28;;;;;;;;;;;4.20;99.90;;;;;;5024285;28;19925;-74
2021/12/02 06:37:54;;;;;;;;;;;4.20;99.90;;;;;;5024651;28;20125;-74
2021/12/02 06:40:29;;;;;;;;;;;4.20;99.90;;;;;;5023879;28;19927;-74
2021/12/02 06:42:56;;;;;;;;;;;4.20;99.90;;;;;;5024766;28;20235;-74
2021/12/02 06:45:22;;;;;;;;;;;4.20;99.90;;;;;;5024787;28;19921;-74
2021/12/02 06:47:51;;;;;;;;;;;4.20;99.90;;;;;;5025053;28;19921;-74
2021/12/02 06:50:19;;;;;;;;;;;4.30;99.90;;;;;;5025365;28;19922;-74
2021/12/02 06:52:48;;;;;;;;;;;4.30;99.90;;;;;;5024701;28;19921;-73
2021/12/02 06:55:15;;;;;;;;;;;4.20;99.90;;;;;;5023062;28;19928;-73
2021/12/02 06:57:41;;;;;;;;;;;4.30;99.90;;;;;;5023808;28;19925;-73
2021/12/02 07:00:09;;;;;;;;;;;4.30;99.90;;;;;;5023884;28;20121;-74
2021/12/02 07:02:36;;;;;;;;;;;4.20;99.90;;;;;;5022361;28;19927;-74
2021/12/02 07:05:03;;;;;;;;;;;4.20;99.90;;;;;;5023004;28;19922;-73
2021/12/02 07:07:32;;;;;;;;;;;4.20;99.90;;;;;;5024000;28;19921;-73
2021/12/02 07:10:00;;;;;;;;;;;4.20;99.90;;;;;;5023850;28;19996;-74
2021/12/02 07:12:32;;;;;;;;;;;4.20;99.90;;;;;;5023773;28;19921;-74
2021/12/02 07:14:59;;;;;;;;;;;4.10;99.90;;;;;;5022780;28;19946;-74
2021/12/02 07:17:26;;;;;;;;;;;4.10;99.90;;;;;;5023393;28;19925;-73
2021/12/02 07:19:53;;;;;;;;;;;4.20;99.90;;;;;;5023916;28;19925;-74
2021/12/02 07:22:19;;;;;;;;;;;4.20;99.90;;;;;;5023593;28;19921;-74
2021/12/02 07:24:46;;;;;;;;;;;4.20;99.90;;;;;;5023283;28;20223;-74
2021/12/02 07:27:14;;;;;;;;;;;4.20;99.90;;;;;;5023786;28;19956;-73
2021/12/02 07:29:41;;;;;;;;;;;4.20;99.90;;;;;;5023953;28;19921;-73
2021/12/02 07:32:10;;;;;;;;;;;4.20;99.90;;;;;;5022348;28;19929;-74
2021/12/02 07:34:37;;;;;;;;;;;4.20;99.90;;;;;;5015379;28;19922;-74
2021/12/02 07:37:04;;;;;;;;;;;4.20;99.90;;;;;;5014152;28;19949;-74
2021/12/02 07:39:31;;;;;;;;;;;4.20;99.90;;;;;;5023664;28;19988;-73
2021/12/02 07:41:58;;;;;;;;;;;4.20;99.90;;;;;;5023401;28;19921;-73
2021/12/02 07:44:26;;;;;;;;;;;4.20;99.90;;;;;;5023517;28;19928;-73
2021/12/02 07:46:55;;;;;;;;;;;4.20;99.90;;;;;;5023659;28;20094;-73
2021/12/02 07:49:22;;;;;;;;;;;4.20;99.90;;;;;;5024398;28;19957;-73
2021/12/02 07:51:58;;;;;;;;;;;4.30;99.90;;;;;;5021372;28;19921;-74
2021/12/02 07:54:25;;;;;;;;;;;4.20;99.90;;;;;;5023096;28;20212;-74
2021/12/02 07:56:53;;;;;;;;;;;4.30;99.90;;;;;;5023951;28;19928;-73
2021/12/02 07:59:20;;;;;;;;;;;4.30;99.90;;;;;;5024163;28;19926;-74
2021/12/02 08:01:48;;;;;;;;;;;4.30;99.90;;;;;;5023827;28;19928;-74
2021/12/02 08:04:14;;;;;;;;;;;4.30;99.90;;;;;;5003535;28;20000;-74
2021/12/02 08:06:41;;;;;;;;;;;4.20;99.90;;;;;;5015162;28;20209;-74
2021/12/02 08:09:12;;;;;;;;;;;4.20;99.90;;;;;;5023692;28;20208;-74
2021/12/02 08:11:38;;;;;;;;;;;4.20;99.90;;;;;;5023942;28;19921;-73
2021/12/02 08:14:08;;;;;;;;;;;4.30;99.90;;;;;;5023272;28;19921;-74
2021/12/02 08:16:34;;;;;;;;;;;4.30;99.90;;;;;;5023509;28;20005;-74
2021/12/02 08:19:02;;;;;;;;;;;4.30;99.90;;;;;;5023789;28;19928;-74
2021/12/02 08:21:29;;;;;;;;;;;4.30;99.90;;;;;;5023492;28;19993;-74
2021/12/02 08:23:55;;;;;;;;;;;4.40;99.90;;;;;;5023024;28;19921;-74
2021/12/02 08:26:22;;;;;;;;;;;4.40;99.90;;;;;;5022238;28;19921;-74
2021/12/02 08:28:49;;;;;;;;;;;4.40;99.90;;;;;;5021874;28;19921;-74
2021/12/02 08:31:16;;;;;;;;;;;4.40;99.90;;;;;;5023898;28;19922;-74
2021/12/02 08:33:43;;;;;;;;;;;4.40;99.90;;;;;;5022826;28;19925;-74
2021/12/02 08:36:10;;;;;;;;;;;4.40;99.90;;;;;;5023783;28;19921;-75
2021/12/02 08:38:37;;;;;;;;;;;4.40;99.90;;;;;;5023231;28;19960;-75
2021/12/02 08:41:13;;;;;;;;;;;4.40;99.90;;;;;;5022511;28;19921;-74
2021/12/02 08:43:39;;;;;;;;;;;4.40;99.90;;;;;;5022754;28;19968;-74
2021/12/02 08:46:06;;;;;;;;;;;4.50;99.90;;;;;;5023654;28;20009;-74
2021/12/02 08:48:33;;;;;;;;;;;4.50;99.90;;;;;;5021768;28;19921;-75
2021/12/02 08:50:59;;;;;;;;;;;4.50;99.90;;;;;;5022942;28;19927;-75
2021/12/02 08:53:27;;;;;;;;;;;4.50;99.90;;;;;;5022062;28;20205;-75
2021/12/02 08:55:54;;;;;;;;;;;4.50;99.90;;;;;;5022641;28;19921;-75
2021/12/02 08:58:20;;;;;;;;;;;4.50;99.90;;;;;;5022598;28;19928;-75
2021/12/02 09:00:47;;;;;;;;;;;4.50;99.90;;;;;;5022629;28;19921;-75
2021/12/02 09:03:14;;;;;;;;;;;4.60;99.90;;;;;;5022518;28;19996;-74
2021/12/02 09:05:43;;;;;;;;;;;4.60;99.90;;;;;;5021762;28;20214;-75
2021/12/02 09:08:09;;;;;;;;;;;4.60;99.90;;;;;;5022603;28;19922;-75
2021/12/02 09:10:37;;;;;;;;;;;4.60;99.90;;;;;;5022855;28;19922;-75
2021/12/02 09:13:07;;;;;;;;;;;4.70;99.90;;;;;;5022464;28;20209;-74
2021/12/02 09:15:34;;;;;;;;;;;4.70;99.90;;;;;;5022547;28;19922;-74
2021/12/02 09:18:01;;;;;;;;;;;4.70;99.90;;;;;;5024948;28;19922;-75
2021/12/02 09:20:27;;;;;;;;;;;4.80;99.90;;;;;;5026317;28;19921;-75
2021/12/02 09:22:54;;;;;;;;;;;4.80;99.90;;;;;;5026137;28;19921;-75
2021/12/02 09:25:21;;;;;;;;;;;4.80;99.90;;;;;;5025336;28;19922;-75
2021/12/02 09:27:48;;;;;;;;;;;4.80;99.90;;;;;;5025773;28;19921;-74
2021/12/02 09:30:16;;;;;;;;;;;4.70;99.90;;;;;;5026013;28;19921;-75
2021/12/02 09:32:43;;;;;;;;;;;4.70;99.90;;;;;;5025455;28;19928;-74
2021/12/02 09:35:10;;;;;;;;;;;4.70;99.90;;;;;;5025589;28;19921;-74
2021/12/02 09:37:37;;;;;;;;;;;4.50;99.90;;;;;;5025487;28;19922;-74
2021/12/02 09:40:05;;;;;;;;;;;4.30;99.90;;;;;;5024648;28;19928;-74
2021/12/02 09:42:32;;;;;;;;;;;4.10;99.90;;;;;;5025059;28;19921;-74
2021/12/02 09:45:00;;;;;;;;;;;4.00;99.90;;;;;;5025686;28;19928;-74
2021/12/02 09:47:28;;;;;;;;;;;3.90;99.90;;;;;;5025084;28;20220;-74
2021/12/02 09:49:55;;;;;;;;;;;3.70;99.90;;;;;;5025810;28;19925;-73
2021/12/02 09:52:30;;;;;;;;;;;3.70;99.90;;;;;;5025408;28;19989;-73
2021/12/02 09:55:00;;;;;;;;;;;3.50;99.90;;;;;;5025176;28;20148;-73
2021/12/02 09:57:33;;;;;;;;;;;3.40;99.90;;;;;;5024694;28;19992;-73
2021/12/02 10:00:01;;;;;;;;;;;3.40;99.90;;;;;;5025543;28;19976;-73
2021/12/02 10:02:28;;;;;;;;;;;3.30;99.90;;;;;;5025387;28;19921;-73
2021/12/02 10:04:58;;;;;;;;;;;3.20;99.90;;;;;;5024812;28;19922;-73
2021/12/02 10:07:30;;;;;;;;;;;3.20;99.90;;;;;;5024922;28;20065;-73
2021/12/02 10:10:03;;;;;;;;;;;3.20;99.90;;;;;;5009874;28;19993;-73
2021/12/02 10:12:32;;;;;;;;;;;3.20;99.90;;;;;;5025245;28;19976;-73
2021/12/02 10:15:01;;;;;;;;;;;3.10;99.90;;;;;;5024647;28;19922;-73
2021/12/02 10:17:33;;;;;;;;;;;3.10;99.90;;;;;;5023926;28;19949;-72
2021/12/02 10:20:10;;;;;;;;;;;3.10;99.90;;;;;;5024862;28;19952;-73
2021/12/02 10:22:37;;;;;;;;;;;3.10;99.90;;;;;;5024638;28;19968;-73
2021/12/02 10:25:04;;;;;;;;;;;3.10;99.90;;;;;;5023771;28;19921;-74
2021/12/02 10:27:30;;;;;;;;;;;3.20;99.90;;;;;;5024184;28;19921;-74
2021/12/02 10:29:57;;;;;;;;;;;3.20;99.90;;;;;;5025149;28;19921;-73
2021/12/02 10:32:25;;;;;;;;;;;3.30;99.90;;;;;;5024463;28;19921;-73
2021/12/02 10:34:55;;;;;;;;;;;3.20;99.90;;;;;;5024062;28;20172;-73
2021/12/02 10:37:22;;;;;;;;;;;3.20;99.90;;;;;;5023833;28;19927;-74
2021/12/02 10:40:00;;;;;;;;;;;3.20;99.90;;;;;;5021441;28;20153;-73
2021/12/02 10:42:27;;;;;;;;;;;3.10;99.90;;;;;;5023309;28;19957;-72
2021/12/02 10:44:54;;;;;;;;;;;3.10;99.90;;;;;;5023854;28;20243;-73
2021/12/02 10:47:22;;;;;;;;;;;3.20;99.90;;;;;;5023731;28;20176;-73
2021/12/02 10:49:50;;;;;;;;;;;3.10;99.90;;;;;;5023412;28;20121;-72
2021/12/02 10:52:19;;;;;;;;;;;3.20;99.90;;;;;;5023726;28;19922;-73
2021/12/02 10:54:46;;;;;;;;;;;3.20;99.90;;;;;;5023624;28;19931;-73
2021/12/02 10:57:14;;;;;;;;;;;3.30;99.90;;;;;;5023598;28;19930;-73
2021/12/02 10:59:44;;;;;;;;;;;3.30;99.90;;;;;;5024263;28;19959;-73
2021/12/02 11:02:18;;;;;;;;;;;3.30;99.90;;;;;;5023294;28;20176;-73
2021/12/02 11:04:46;;;;;;;;;;;3.40;99.90;;;;;;5023730;28;19961;-73
2021/12/02 11:07:19;;;;;;;;;;;3.40;99.90;;;;;;5023522;28;19921;-73
2021/12/02 11:09:48;;;;;;;;;;;3.40;99.90;;;;;;5024074;28;19921;-73
2021/12/02 11:12:19;;;;;;;;;;;3.30;99.90;;;;;;5023290;28;20132;-74
2021/12/02 11:14:53;;;;;;;;;;;3.30;99.90;;;;;;5023206;28;19922;-73
2021/12/02 11:17:21;;;;;;;;;;;3.30;99.90;;;;;;5023111;28;19922;-72
2021/12/02 11:19:48;;;;;;;;;;;3.30;99.90;;;;;;5024134;28;19922;-72
2021/12/02 11:22:16;;;;;;;;;;;3.30;99.90;;;;;;5023805;28;19921;-72
2021/12/02 11:24:43;;;;;;;;;;;3.20;99.90;;;;;;5023184;28;19921;-72
2021/12/02 11:27:12;;;;;;;;;;;3.20;99.90;;;;;;5022011;28;19922;-72
2021/12/02 11:29:46;;;;;;;;;;;3.10;99.90;;;;;;5023948;28;19928;-72
2021/12/02 11:32:23;;;;;;;;;;;3.10;99.90;;;;;;5023172;28;19928;-72
2021/12/02 11:34:58;;;;;;;;;;;3.00;99.90;;;;;;5022987;28;19921;-71
2021/12/02 11:37:25;;;;;;;;;;;2.90;99.90;;;;;;5023277;28;20206;-72
2021/12/02 11:39:52;;;;;;;;;;;2.90;99.90;;;;;;5022194;28;19936;-72
2021/12/02 11:42:20;;;;;;;;;;;2.90;99.90;;;;;;5021471;28;19921;-72
2021/12/02 11:44:47;;;;;;;;;;;2.80;99.90;;;;;;5022985;28;20213;-72
2021/12/02 11:47:13;;;;;;;;;;;2.70;99.90;;;;;;5023640;28;19945;-72
2021/12/02 11:49:41;;;;;;;;;;;2.70;99.90;;;;;;5023850;28;19922;-70
2021/12/02 11:52:08;;;;;;;;;;;2.70;99.90;;;;;;5022922;28;19937;-72
2021/12/02 11:54:36;;;;;;;;;;;2.60;99.90;;;;;;5023218;28;19928;-72
2021/12/02 11:57:02;;;;;;;;;;;2.60;99.90;;;;;;5023525;28;19921;-71
2021/12/02 11:59:30;;;;;;;;;;;2.50;99.90;;;;;;5023857;28;19921;-72
2021/12/02 12:01:58;;;;;;;;;;;2.50;99.90;;;;;;5022855;28;19936;-72
2021/12/02 12:04:24;;;;;;;;;;;2.50;99.90;;;;;;5006284;28;19932;-72
2021/12/02 12:06:54;;;;;;;;;;;2.40;99.90;;;;;;5009707;28;19925;-72
2021/12/02 12:09:21;;;;;;;;;;;2.40;99.90;;;;;;5023669;28;19921;-72
2021/12/02 12:11:48;;;;;;;;;;;2.40;99.90;;;;;;5023690;28;19921;-71
2021/12/02 12:14:18;;;;;;;;;;;2.50;99.90;;;;;;5020087;28;19922;-72
2021/12/02 12:16:48;;;;;;;;;;;2.50;99.90;;;;;;5023625;28;20192;-71
2021/12/02 12:19:16;;;;;;;;;;;2.60;99.90;;;;;;5003986;28;19922;-68
2021/12/02 12:21:44;;;;;;;;;;;2.70;99.90;;;;;;5003650;28;20297;-70
2021/12/02 12:24:14;;;;;;;;;;;2.80;99.90;;;;;;5022385;28;19921;-68
2021/12/02 12:26:43;;;;;;;;;;;2.80;99.90;;;;;;5023238;28;19921;-68
2021/12/02 12:29:31;;;;;;;;;;;2.80;99.90;;;;;;5014861;28;20285;-72
2021/12/02 12:32:15;;;;;;;;;;;2.90;99.90;;;;;;5011253;28;19962;-72
2021/12/02 12:34:48;;;;;;;;;;;2.90;99.90;;;;;;5015612;28;19925;-69
2021/12/02 12:37:46;;;;;;;;;;;3.00;99.90;;;;;;5019766;28;19945;-72
2021/12/02 12:40:14;;;;;;;;;;;3.10;99.90;;;;;;5003826;28;19922;-72
2021/12/02 12:42:42;;;;;;;;;;;3.00;99.90;;;;;;5010945;28;19928;-72
2021/12/02 12:45:09;;;;;;;;;;;3.00;99.90;;;;;;5022324;28;20213;-72
2021/12/02 12:47:47;;;;;;;;;;;2.90;99.90;;;;;;5022282;28;19932;-72
2021/12/02 12:50:31;;;;;;;;;;;2.90;99.90;;;;;;5016981;28;20235;-72
2021/12/02 12:53:16;;;;;;;;;;;2.80;99.90;;;;;;5017117;28;20271;-72
2021/12/02 12:55:49;;;;;;;;;;;2.70;99.90;;;;;;5018057;28;19928;-72
2021/12/02 12:58:17;;;;;;;;;;;2.80;99.90;;;;;;5026434;28;19969;-71
2021/12/02 13:00:45;;;;;;;;;;;2.80;99.90;;;;;;5023380;28;19984;-72
2021/12/02 13:03:15;;;;;;;;;;;2.80;99.90;;;;;;5018457;28;19928;-72
2021/12/02 13:05:45;;;;;;;;;;;2.90;99.90;;;;;;5025799;28;19925;-71
2021/12/02 13:08:19;;;;;;;;;;;2.90;99.90;;;;;;5025541;28;20161;-72
2021/12/02 13:10:49;;;;;;;;;;;2.90;99.90;;;;;;5026860;28;19928;-72
2021/12/02 13:13:21;;;;;;;;;;;2.80;99.90;;;;;;5025909;28;19928;-73
2021/12/02 13:15:47;;;;;;;;;;;2.90;99.90;;;;;;5021480;28;19964;-72
2021/12/02 13:18:29;;;;;;;;;;;2.90;99.90;;;;;;5024084;28;19922;-71
2021/12/02 13:20:56;;;;;;;;;;;2.90;99.90;;;;;;5026686;28;19922;-71
2021/12/02 13:23:43;;;;;;;;;;;2.90;99.90;;;;;;5025625;28;19921;-72
2021/12/02 13:26:17;;;;;;;;;;;2.90;99.90;;;;;;5025975;28;19921;-74
2021/12/02 13:28:44;;;;;;;;;;;3.00;99.90;;;;;;5010636;28;19926;-72
2021/12/02 13:31:12;;;;;;;;;;;3.00;99.90;;;;;;5015274;28;19957;-73
2021/12/02 13:33:42;;;;;;;;;;;3.00;99.90;;;;;;5025228;28;19980;-72
2021/12/02 13:36:10;;;;;;;;;;;3.00;99.90;;;;;;5026097;28;19947;-73
2021/12/02 13:38:36;;;;;;;;;;;3.10;99.90;;;;;;5026561;28;19960;-73
2021/12/02 13:41:17;;;;;;;;;;;3.10;99.90;;;;;;5026139;28;19951;-73
2021/12/02 13:43:53;;;;;;;;;;;3.10;99.90;;;;;;5025204;28;19928;-72
2021/12/02 13:46:29;;;;;;;;;;;3.10;99.90;;;;;;5024627;28;20158;-73
2021/12/02 13:48:59;;;;;;;;;;;3.20;99.90;;;;;;5024743;28;19944;-74
2021/12/02 13:54:26;;;;;;;;;;;3.10;99.90;;;;;;5025102;28;20113;-72
2021/12/02 13:56:54;;;;;;;;;;;3.10;99.90;;;;;;5025278;28;19960;-73
2021/12/02 13:59:24;;;;;;;;;;;3.10;99.90;;;;;;5025347;28;19992;-72
2021/12/02 14:01:51;;;;;;;;;;;3.10;99.90;;;;;;5025093;28;20025;-72
2021/12/02 14:04:19;;;;;;;;;;;3.20;99.90;;;;;;5020745;28;19922;-72
2021/12/02 14:06:47;;;;;;;;;;;3.30;99.90;;;;;;5025554;28;20284;-72
2021/12/02 14:09:16;;;;;;;;;;;3.30;99.90;;;;;;5025173;28;19964;-69
2021/12/02 14:11:43;;;;;;;;;;;3.40;99.90;;;;;;5025798;28;20148;-70
2021/12/02 14:14:17;;;;;;;;;;;3.40;99.90;;;;;;5024229;28;19930;-69
2021/12/02 14:16:44;;;;;;;;;;;3.40;99.90;;;;;;5010292;28;19922;-71
2021/12/02 14:19:10;;;;;;;;;;;3.40;99.90;;;;;;5013679;28;20000;-72
2021/12/02 14:21:38;;;;;;;;;;;3.40;99.90;;;;;;5025474;28;19926;-72
2021/12/02 14:24:05;;;;;;;;;;;3.40;99.90;;;;;;5024219;28;19929;-70
2021/12/02 14:26:32;;;;;;;;;;;3.40;99.90;;;;;;5024667;28;19921;-72
2021/12/02 14:28:59;;;;;;;;;;;3.40;99.90;;;;;;5024536;28;19922;-72
2021/12/02 14:31:27;;;;;;;;;;;3.40;99.90;;;;;;5025339;28;19925;-72
2021/12/02 14:33:54;;;;;;;;;;;3.40;99.90;;;;;;5024546;28;19921;-73
2021/12/02 14:36:22;;;;;;;;;;;3.40;99.90;;;;;;5024935;28;19921;-71
2021/12/02 14:38:58;;;;;;;;;;;3.40;99.90;;;;;;5024573;28;19921;-72
2021/12/02 14:41:26;;;;;;;;;;;3.40;99.90;;;;;;5024867;28;19925;-72
2021/12/02 14:43:54;;;;;;;;;;;3.40;99.90;;;;;;5023356;28;19928;-71
2021/12/02 14:46:22;;;;;;;;;;;3.40;99.90;;;;;;5024287;28;19969;-70
2021/12/02 14:48:59;;;;;;;;;;;3.30;99.90;;;;;;5022041;28;20129;-70